Página principal
METAR-TAF:

METAR-TAF

Aeroportos :

Salamanca, Espanha

latitude: 40-57N, longitude: 005-30W, altura: 793 m

Observação actual do tempo

O boletim foi feito há 11 horas e 23 minutos, às 18:30 UTC
Vento calmo
Temperatura 14°C
Humidade 72%
Pressão 1013 hPa
Visibilidade 10 km ou mais
Poucas nuvensa uma altura de 4800 ft

METAR: LESA 251830Z 00000KT 9999 FEW048 14/09 Q1013

Hora: 07:53 (05:53 UTC)

Previsão

O boletim foi feito há 53 minutos, às 05:00 UTC
Previsão válida de 26 às 06 UTC a 27 às 06 UTC
Vento 5 kt com direcção variável
Visibilidade 10 km ou mais
Nuvens dispersasa uma altura de 4000 ft
Probabilidade 30% :
Temporariamente
de 26 às 12 UTC a 26 às 18 UTC
Nuvens dispersasa uma altura de 3000 ft, Cumulus congestus.
aguaceiros de chuva

TAF: LESA 260500Z 2606/2706 VRB05KT 9999 SCT040 TX19/2615Z TN09/2606Z PROB30 TEMPO 2612/2618 SHRA SCT030TCU

Observações e previsões do tempo de mais de 4000 aeroportos (mensagens METAR e TAF).

As estações disponíveis são os pontos amarelos e vermelhos sobre o mapa.

Mova o rato sobre o mapa para ver o nome da estação.

Depois clique no ponto para visualizar as observações e previsões meteorológicas.

Para alterar o mapa : clique nos botões verdes com uma cruz preta para aumentar o zoom; no botão verde com uma pitada de zoom; ou nas setas verdes para mapas adjacentes.


METAR-TAF: